sensor_id;sensor_type;location;lat;lon;timestamp;pressure;altitude;pressure_sealevel;temperature;humidity
68656;BME280;55638;51.122;13.606;2024-03-08T00:01:02;100777.31;;;1.65;45.67
68656;BME280;55638;51.122;13.606;2024-03-08T00:02:36;100782.97;;;1.55;45.67
68656;BME280;55638;51.122;13.606;2024-03-08T00:04:09;100764.75;;;1.45;45.67
68656;BME280;55638;51.122;13.606;2024-03-08T00:05:40;100765.06;;;1.37;45.63
68656;BME280;55638;51.122;13.606;2024-03-08T00:07:13;100768.16;;;1.25;45.73
68656;BME280;55638;51.122;13.606;2024-03-08T00:08:45;100771.13;;;1.16;45.79
68656;BME280;55638;51.122;13.606;2024-03-08T00:10:17;100768.78;;;1.06;45.85
68656;BME280;55638;51.122;13.606;2024-03-08T00:11:49;100774.38;;;0.99;46.12
68656;BME280;55638;51.122;13.606;2024-03-08T00:13:22;100766.72;;;0.88;46.13
68656;BME280;55638;51.122;13.606;2024-03-08T00:14:54;100767.00;;;0.80;46.29
68656;BME280;55638;51.122;13.606;2024-03-08T00:16:26;100766.31;;;0.74;46.47
68656;BME280;55638;51.122;13.606;2024-03-08T00:17:58;100768.25;;;0.69;46.57
68656;BME280;55638;51.122;13.606;2024-03-08T00:19:30;100765.94;;;0.59;46.63
68656;BME280;55638;51.122;13.606;2024-03-08T00:21:02;100766.13;;;0.53;46.72
68656;BME280;55638;51.122;13.606;2024-03-08T00:22:34;100763.66;;;0.47;46.74
68656;BME280;55638;51.122;13.606;2024-03-08T00:24:07;100755.91;;;0.41;46.95
68656;BME280;55638;51.122;13.606;2024-03-08T00:25:39;100758.75;;;0.35;46.92
68656;BME280;55638;51.122;13.606;2024-03-08T00:27:11;100765.06;;;0.31;47.07
68656;BME280;55638;51.122;13.606;2024-03-08T00:28:43;100767.06;;;0.24;47.18
68656;BME280;55638;51.122;13.606;2024-03-08T00:30:15;100764.50;;;0.21;47.16
68656;BME280;55638;51.122;13.606;2024-03-08T00:31:47;100763.75;;;0.16;47.43
68656;BME280;55638;51.122;13.606;2024-03-08T00:33:19;100758.66;;;0.10;47.44
68656;BME280;55638;51.122;13.606;2024-03-08T00:34:51;100758.75;;;0.07;47.41
68656;BME280;55638;51.122;13.606;2024-03-08T00:36:26;100766.91;;;0.01;47.49
68656;BME280;55638;51.122;13.606;2024-03-08T00:37:58;100766.16;;;-0.04;47.90
68656;BME280;55638;51.122;13.606;2024-03-08T00:39:29;100766.31;;;-0.09;47.79
68656;BME280;55638;51.122;13.606;2024-03-08T00:41:01;100763.78;;;-0.14;47.85
68656;BME280;55638;51.122;13.606;2024-03-08T00:42:33;100764.81;;;-0.18;47.81
68656;BME280;55638;51.122;13.606;2024-03-08T00:44:05;100767.59;;;-0.22;47.66
68656;BME280;55638;51.122;13.606;2024-03-08T00:45:37;100766.00;;;-0.28;47.64
68656;BME280;55638;51.122;13.606;2024-03-08T00:47:09;100766.13;;;-0.33;47.91
68656;BME280;55638;51.122;13.606;2024-03-08T00:48:41;100761.88;;;-0.38;47.75
68656;BME280;55638;51.122;13.606;2024-03-08T00:50:15;100756.69;;;-0.43;47.95
68656;BME280;55638;51.122;13.606;2024-03-08T00:51:47;100758.56;;;-0.46;47.97
68656;BME280;55638;51.122;13.606;2024-03-08T00:53:19;100759.53;;;-0.49;48.31
68656;BME280;55638;51.122;13.606;2024-03-08T00:54:51;100765.81;;;-0.51;48.50
68656;BME280;55638;51.122;13.606;2024-03-08T00:56:23;100768.47;;;-0.53;48.76
68656;BME280;55638;51.122;13.606;2024-03-08T00:57:56;100759.69;;;-0.55;48.79
68656;BME280;55638;51.122;13.606;2024-03-08T00:59:30;100754.41;;;-0.55;48.81
68656;BME280;55638;51.122;13.606;2024-03-08T01:01:06;100743.81;;;-0.55;48.98
68656;BME280;55638;51.122;13.606;2024-03-08T01:02:38;100749.09;;;-0.55;49.04
68656;BME280;55638;51.122;13.606;2024-03-08T01:04:10;100753.53;;;-0.56;49.07
68656;BME280;55638;51.122;13.606;2024-03-08T01:05:43;100754.41;;;-0.55;48.94
68656;BME280;55638;51.122;13.606;2024-03-08T01:07:15;100747.38;;;-0.56;49.06
68656;BME280;55638;51.122;13.606;2024-03-08T01:08:47;100760.59;;;-0.55;49.06
68656;BME280;55638;51.122;13.606;2024-03-08T01:10:19;100749.94;;;-0.53;49.09
68656;BME280;55638;51.122;13.606;2024-03-08T01:11:51;100752.59;;;-0.53;49.24
68656;BME280;55638;51.122;13.606;2024-03-08T01:13:22;100747.28;;;-0.53;48.99
68656;BME280;55638;51.122;13.606;2024-03-08T01:14:55;100751.72;;;-0.53;49.16
68656;BME280;55638;51.122;13.606;2024-03-08T01:16:27;100742.00;;;-0.53;49.21
68656;BME280;55638;51.122;13.606;2024-03-08T01:17:59;100744.63;;;-0.53;49.22
68656;BME280;55638;51.122;13.606;2024-03-08T01:19:33;100748.13;;;-0.51;49.06
68656;BME280;55638;51.122;13.606;2024-03-08T01:21:05;100741.13;;;-0.53;48.96
68656;BME280;55638;51.122;13.606;2024-03-08T01:22:38;100744.69;;;-0.55;49.10
68656;BME280;55638;51.122;13.606;2024-03-08T01:24:10;100736.75;;;-0.55;49.00
68656;BME280;55638;51.122;13.606;2024-03-08T01:25:42;100737.72;;;-0.57;49.18
68656;BME280;55638;51.122;13.606;2024-03-08T01:27:15;100736.00;;;-0.60;49.25
68656;BME280;55638;51.122;13.606;2024-03-08T01:28:49;100728.13;;;-0.61;49.49
68656;BME280;55638;51.122;13.606;2024-03-08T01:30:21;100733.34;;;-0.60;49.50
68656;BME280;55638;51.122;13.606;2024-03-08T01:31:53;100728.97;;;-0.61;49.56
68656;BME280;55638;51.122;13.606;2024-03-08T01:33:26;100719.25;;;-0.60;49.59
68656;BME280;55638;51.122;13.606;2024-03-08T01:34:58;100724.50;;;-0.59;49.53
68656;BME280;55638;51.122;13.606;2024-03-08T01:36:30;100728.03;;;-0.58;49.69
68656;BME280;55638;51.122;13.606;2024-03-08T01:38:02;100720.03;;;-0.57;49.67
68656;BME280;55638;51.122;13.606;2024-03-08T01:39:36;100719.09;;;-0.54;49.82
68656;BME280;55638;51.122;13.606;2024-03-08T01:41:08;100714.66;;;-0.53;49.57
68656;BME280;55638;51.122;13.606;2024-03-08T01:42:40;100711.94;;;-0.52;49.56
68656;BME280;55638;51.122;13.606;2024-03-08T01:44:12;100711.06;;;-0.51;49.42
68656;BME280;55638;51.122;13.606;2024-03-08T01:45:49;100711.94;;;-0.52;49.53
68656;BME280;55638;51.122;13.606;2024-03-08T01:47:21;100702.25;;;-0.51;49.70
68656;BME280;55638;51.122;13.606;2024-03-08T01:48:55;100703.09;;;-0.51;49.50
68656;BME280;55638;51.122;13.606;2024-03-08T01:50:27;100696.94;;;-0.51;49.66
68656;BME280;55638;51.122;13.606;2024-03-08T01:51:59;100695.19;;;-0.52;49.51
68656;BME280;55638;51.122;13.606;2024-03-08T01:53:31;100696.06;;;-0.52;49.36
68656;BME280;55638;51.122;13.606;2024-03-08T01:55:05;100698.66;;;-0.50;49.66
68656;BME280;55638;51.122;13.606;2024-03-08T01:56:39;100697.81;;;-0.51;49.74
68656;BME280;55638;51.122;13.606;2024-03-08T01:58:11;100687.22;;;-0.51;49.72
68656;BME280;55638;51.122;13.606;2024-03-08T01:59:44;100689.00;;;-0.51;49.79
68656;BME280;55638;51.122;13.606;2024-03-08T02:01:16;100691.69;;;-0.53;49.84
68656;BME280;55638;51.122;13.606;2024-03-08T02:02:51;100685.47;;;-0.52;49.76
68656;BME280;55638;51.122;13.606;2024-03-08T02:04:25;100689.03;;;-0.53;49.78
68656;BME280;55638;51.122;13.606;2024-03-08T02:05:57;100689.94;;;-0.54;49.87
68656;BME280;55638;51.122;13.606;2024-03-08T02:07:30;100682.09;;;-0.57;49.77
68656;BME280;55638;51.122;13.606;2024-03-08T02:09:03;100689.19;;;-0.59;49.72
68656;BME280;55638;51.122;13.606;2024-03-08T02:10:38;100689.28;;;-0.62;49.56
68656;BME280;55638;51.122;13.606;2024-03-08T02:12:10;100683.28;;;-0.67;49.32
68656;BME280;55638;51.122;13.606;2024-03-08T02:13:43;100686.91;;;-0.71;49.23
68656;BME280;55638;51.122;13.606;2024-03-08T02:15:15;100676.47;;;-0.76;49.36
68656;BME280;55638;51.122;13.606;2024-03-08T02:16:48;100678.41;;;-0.83;49.31
68656;BME280;55638;51.122;13.606;2024-03-08T02:18:21;100689.19;;;-0.89;49.47
68656;BME280;55638;51.122;13.606;2024-03-08T02:19:53;100688.44;;;-0.94;49.28
68656;BME280;55638;51.122;13.606;2024-03-08T02:21:29;100681.56;;;-1.01;49.49
68656;BME280;55638;51.122;13.606;2024-03-08T02:23:01;100682.66;;;-1.08;49.84
68656;BME280;55638;51.122;13.606;2024-03-08T02:24:33;100678.41;;;-1.14;49.71
68656;BME280;55638;51.122;13.606;2024-03-08T02:26:05;100682.97;;;-1.20;49.57
68656;BME280;55638;51.122;13.606;2024-03-08T02:27:39;100677.84;;;-1.25;49.60
68656;BME280;55638;51.122;13.606;2024-03-08T02:29:11;100676.22;;;-1.31;49.61
68656;BME280;55638;51.122;13.606;2024-03-08T02:30:43;100672.78;;;-1.34;49.67
68656;BME280;55638;51.122;13.606;2024-03-08T02:32:15;100677.28;;;-1.38;49.69
68656;BME280;55638;51.122;13.606;2024-03-08T02:33:47;100664.13;;;-1.39;49.89
68656;BME280;55638;51.122;13.606;2024-03-08T02:35:19;100671.22;;;-1.41;50.11
68656;BME280;55638;51.122;13.606;2024-03-08T02:36:51;100667.72;;;-1.43;50.17
68656;BME280;55638;51.122;13.606;2024-03-08T02:38:23;100666.88;;;-1.44;50.51
68656;BME280;55638;51.122;13.606;2024-03-08T02:39:57;100667.72;;;-1.42;50.48
68656;BME280;55638;51.122;13.606;2024-03-08T02:41:28;100668.59;;;-1.43;50.84
68656;BME280;55638;51.122;13.606;2024-03-08T02:43:00;100674.72;;;-1.41;51.16
68656;BME280;55638;51.122;13.606;2024-03-08T02:44:32;100664.97;;;-1.39;51.09
68656;BME280;55638;51.122;13.606;2024-03-08T02:46:05;100670.19;;;-1.36;51.05
68656;BME280;55638;51.122;13.606;2024-03-08T02:47:37;100671.00;;;-1.34;51.07
68656;BME280;55638;51.122;13.606;2024-03-08T02:49:09;100669.13;;;-1.29;50.94
68656;BME280;55638;51.122;13.606;2024-03-08T02:50:41;100673.47;;;-1.26;51.05
68656;BME280;55638;51.122;13.606;2024-03-08T02:52:17;100668.97;;;-1.24;51.02
68656;BME280;55638;51.122;13.606;2024-03-08T02:53:49;100663.66;;;-1.22;51.17
68656;BME280;55638;51.122;13.606;2024-03-08T02:55:23;100661.81;;;-1.20;51.15
68656;BME280;55638;51.122;13.606;2024-03-08T02:56:57;100665.31;;;-1.18;51.02
68656;BME280;55638;51.122;13.606;2024-03-08T02:58:29;100664.38;;;-1.17;51.29
68656;BME280;55638;51.122;13.606;2024-03-08T03:00:01;100659.94;;;-1.15;51.20
68656;BME280;55638;51.122;13.606;2024-03-08T03:01:33;100662.56;;;-1.15;51.06
68656;BME280;55638;51.122;13.606;2024-03-08T03:03:05;100659.88;;;-1.14;51.05
68656;BME280;55638;51.122;13.606;2024-03-08T03:04:41;100656.34;;;-1.13;51.26
68656;BME280;55638;51.122;13.606;2024-03-08T03:06:13;100654.56;;;-1.12;50.90
68656;BME280;55638;51.122;13.606;2024-03-08T03:07:45;100659.78;;;-1.11;50.99
68656;BME280;55638;51.122;13.606;2024-03-08T03:09:17;100652.78;;;-1.12;51.08
68656;BME280;55638;51.122;13.606;2024-03-08T03:10:55;100658.94;;;-1.11;50.70
68656;BME280;55638;51.122;13.606;2024-03-08T03:12:29;100654.50;;;-1.11;50.82
68656;BME280;55638;51.122;13.606;2024-03-08T03:14:01;100649.28;;;-1.12;51.03
68656;BME280;55638;51.122;13.606;2024-03-08T03:15:33;100649.28;;;-1.12;50.88
68656;BME280;55638;51.122;13.606;2024-03-08T03:17:08;100655.47;;;-1.13;50.98
68656;BME280;55638;51.122;13.606;2024-03-08T03:18:41;100649.28;;;-1.14;50.53
68656;BME280;55638;51.122;13.606;2024-03-08T03:20:14;100648.44;;;-1.14;50.88
68656;BME280;55638;51.122;13.606;2024-03-08T03:21:54;100649.34;;;-1.15;50.84
68656;BME280;55638;51.122;13.606;2024-03-08T03:23:26;100646.72;;;-1.17;51.05
68656;BME280;55638;51.122;13.606;2024-03-08T03:24:58;100653.84;;;-1.19;51.18
68656;BME280;55638;51.122;13.606;2024-03-08T03:26:32;100652.94;;;-1.18;51.01
68656;BME280;55638;51.122;13.606;2024-03-08T03:28:04;100655.66;;;-1.21;51.07
68656;BME280;55638;51.122;13.606;2024-03-08T03:29:40;100656.59;;;-1.22;51.15
68656;BME280;55638;51.122;13.606;2024-03-08T03:31:14;100654.03;;;-1.25;51.00
68656;BME280;55638;51.122;13.606;2024-03-08T03:32:49;100650.53;;;-1.26;51.07
68656;BME280;55638;51.122;13.606;2024-03-08T03:34:23;100658.44;;;-1.26;51.04
68656;BME280;55638;51.122;13.606;2024-03-08T03:35:55;100655.84;;;-1.27;50.95
68656;BME280;55638;51.122;13.606;2024-03-08T03:37:26;100652.41;;;-1.31;50.71
68656;BME280;55638;51.122;13.606;2024-03-08T03:38:58;100655.09;;;-1.32;50.86
68656;BME280;55638;51.122;13.606;2024-03-08T03:40:56;100654.31;;;-1.36;51.04
68656;BME280;55638;51.122;13.606;2024-03-08T03:42:35;100656.19;;;-1.39;51.00
68656;BME280;55638;51.122;13.606;2024-03-08T03:44:10;100657.13;;;-1.42;51.15
68656;BME280;55638;51.122;13.606;2024-03-08T03:45:41;100653.69;;;-1.45;50.94
68656;BME280;55638;51.122;13.606;2024-03-08T03:47:16;100650.28;;;-1.49;51.29
68656;BME280;55638;51.122;13.606;2024-03-08T03:48:48;100648.59;;;-1.53;51.08
68656;BME280;55638;51.122;13.606;2024-03-08T03:50:20;100644.31;;;-1.57;51.13
68656;BME280;55638;51.122;13.606;2024-03-08T03:51:53;100646.19;;;-1.62;51.18
68656;BME280;55638;51.122;13.606;2024-03-08T03:53:25;100655.09;;;-1.66;50.93
68656;BME280;55638;51.122;13.606;2024-03-08T03:54:57;100646.44;;;-1.72;50.92
68656;BME280;55638;51.122;13.606;2024-03-08T03:56:29;100650.97;;;-1.77;51.13
68656;BME280;55638;51.122;13.606;2024-03-08T03:58:02;100648.44;;;-1.81;51.06
68656;BME280;55638;51.122;13.606;2024-03-08T03:59:34;100644.19;;;-1.87;51.15
68656;BME280;55638;51.122;13.606;2024-03-08T04:01:06;100641.69;;;-1.93;51.12
68656;BME280;55638;51.122;13.606;2024-03-08T04:02:38;100639.16;;;-1.98;51.14
68656;BME280;55638;51.122;13.606;2024-03-08T04:04:10;100652.47;;;-2.02;51.22
68656;BME280;55638;51.122;13.606;2024-03-08T04:05:46;100650.84;;;-2.08;51.65
68656;BME280;55638;51.122;13.606;2024-03-08T04:07:18;100647.47;;;-2.13;51.51
68656;BME280;55638;51.122;13.606;2024-03-08T04:08:50;100649.31;;;-2.18;51.29
68656;BME280;55638;51.122;13.606;2024-03-08T04:10:22;100648.56;;;-2.23;51.51
68656;BME280;55638;51.122;13.606;2024-03-08T04:11:54;100646.03;;;-2.28;51.46
68656;BME280;55638;51.122;13.606;2024-03-08T04:13:27;100646.16;;;-2.32;51.37
68656;BME280;55638;51.122;13.606;2024-03-08T04:14:59;100640.94;;;-2.37;51.37
68656;BME280;55638;51.122;13.606;2024-03-08T04:16:32;100644.56;;;-2.39;51.65
68656;BME280;55638;51.122;13.606;2024-03-08T04:18:04;100637.63;;;-2.45;51.39
68656;BME280;55638;51.122;13.606;2024-03-08T04:19:36;100638.56;;;-2.48;51.53
68656;BME280;55638;51.122;13.606;2024-03-08T04:21:08;100644.81;;;-2.52;51.43
68656;BME280;55638;51.122;13.606;2024-03-08T04:22:40;100643.13;;;-2.54;51.58
68656;BME280;55638;51.122;13.606;2024-03-08T04:24:11;100642.31;;;-2.58;51.63
68656;BME280;55638;51.122;13.606;2024-03-08T04:25:44;100638.88;;;-2.61;51.84
68656;BME280;55638;51.122;13.606;2024-03-08T04:27:15;100649.50;;;-2.64;51.62
68656;BME280;55638;51.122;13.606;2024-03-08T04:28:47;100641.66;;;-2.68;51.87
68656;BME280;55638;51.122;13.606;2024-03-08T04:30:19;100647.00;;;-2.71;51.67
68656;BME280;55638;51.122;13.606;2024-03-08T04:31:53;100641.78;;;-2.74;51.97
68656;BME280;55638;51.122;13.606;2024-03-08T04:33:28;100643.59;;;-2.76;51.92
68656;BME280;55638;51.122;13.606;2024-03-08T04:35:00;100643.66;;;-2.79;51.63
68656;BME280;55638;51.122;13.606;2024-03-08T04:36:35;100642.81;;;-2.81;51.97
68656;BME280;55638;51.122;13.606;2024-03-08T04:38:07;100640.25;;;-2.84;51.89
68656;BME280;55638;51.122;13.606;2024-03-08T04:39:39;100642.03;;;-2.86;52.03
68656;BME280;55638;51.122;13.606;2024-03-08T04:41:11;100633.31;;;-2.90;52.09
68656;BME280;55638;51.122;13.606;2024-03-08T04:42:43;100646.50;;;-2.90;51.92
68656;BME280;55638;51.122;13.606;2024-03-08T04:44:15;100636.00;;;-2.93;51.82
68656;BME280;55638;51.122;13.606;2024-03-08T04:45:47;100637.84;;;-2.95;52.13
68656;BME280;55638;51.122;13.606;2024-03-08T04:47:20;100633.44;;;-2.96;52.07
68656;BME280;55638;51.122;13.606;2024-03-08T04:48:52;100633.47;;;-2.97;52.37
68656;BME280;55638;51.122;13.606;2024-03-08T04:50:24;100639.59;;;-2.95;52.34
68656;BME280;55638;51.122;13.606;2024-03-08T04:51:56;100638.72;;;-2.96;52.39
68656;BME280;55638;51.122;13.606;2024-03-08T04:53:27;100637.84;;;-2.96;52.39
68656;BME280;55638;51.122;13.606;2024-03-08T04:54:59;100629.06;;;-2.95;52.37
68656;BME280;55638;51.122;13.606;2024-03-08T04:56:31;100629.00;;;-2.94;52.62
68656;BME280;55638;51.122;13.606;2024-03-08T04:58:03;100637.78;;;-2.93;52.45
68656;BME280;55638;51.122;13.606;2024-03-08T04:59:38;100630.75;;;-2.93;52.51
68656;BME280;55638;51.122;13.606;2024-03-08T05:01:10;100628.97;;;-2.92;52.72
68656;BME280;55638;51.122;13.606;2024-03-08T05:02:42;100625.44;;;-2.91;52.68
68656;BME280;55638;51.122;13.606;2024-03-08T05:04:14;100627.16;;;-2.90;52.80
68656;BME280;55638;51.122;13.606;2024-03-08T05:05:47;100616.59;;;-2.88;52.57
68656;BME280;55638;51.122;13.606;2024-03-08T05:07:18;100629.75;;;-2.87;52.73
68656;BME280;55638;51.122;13.606;2024-03-08T05:08:51;100623.56;;;-2.86;52.63
68656;BME280;55638;51.122;13.606;2024-03-08T05:10:22;100621.81;;;-2.85;52.77
68656;BME280;55638;51.122;13.606;2024-03-08T05:11:54;100620.03;;;-2.85;52.77
68656;BME280;55638;51.122;13.606;2024-03-08T05:13:26;100624.41;;;-2.84;52.89
68656;BME280;55638;51.122;13.606;2024-03-08T05:14:58;100620.84;;;-2.83;52.70
68656;BME280;55638;51.122;13.606;2024-03-08T05:16:30;100620.84;;;-2.83;53.00
68656;BME280;55638;51.122;13.606;2024-03-08T05:18:02;100625.25;;;-2.82;52.80
68656;BME280;55638;51.122;13.606;2024-03-08T05:19:35;100619.06;;;-2.81;52.89
68656;BME280;55638;51.122;13.606;2024-03-08T05:21:07;100615.53;;;-2.80;53.11
68656;BME280;55638;51.122;13.606;2024-03-08T05:22:41;100621.66;;;-2.79;52.85
68656;BME280;55638;51.122;13.606;2024-03-08T05:24:13;100614.63;;;-2.79;52.84
68656;BME280;55638;51.122;13.606;2024-03-08T05:25:46;100616.38;;;-2.79;52.71
68656;BME280;55638;51.122;13.606;2024-03-08T05:27:21;100612.00;;;-2.79;52.73
68656;BME280;55638;51.122;13.606;2024-03-08T05:28:53;100616.38;;;-2.78;52.90
68656;BME280;55638;51.122;13.606;2024-03-08T05:30:24;100613.72;;;-2.78;52.90
68656;BME280;55638;51.122;13.606;2024-03-08T05:31:56;100610.19;;;-2.77;52.81
68656;BME280;55638;51.122;13.606;2024-03-08T05:33:30;100609.28;;;-2.76;52.70
68656;BME280;55638;51.122;13.606;2024-03-08T05:35:02;100612.81;;;-2.77;52.91
68656;BME280;55638;51.122;13.606;2024-03-08T05:36:39;100605.75;;;-2.76;52.86
68656;BME280;55638;51.122;13.606;2024-03-08T05:38:10;100609.28;;;-2.76;52.77
68656;BME280;55638;51.122;13.606;2024-03-08T05:39:44;100611.94;;;-2.76;52.90
68656;BME280;55638;51.122;13.606;2024-03-08T05:41:16;100616.31;;;-2.76;52.81
68656;BME280;55638;51.122;13.606;2024-03-08T05:42:49;100601.44;;;-2.79;52.87
68656;BME280;55638;51.122;13.606;2024-03-08T05:44:21;100605.81;;;-2.79;52.71
68656;BME280;55638;51.122;13.606;2024-03-08T05:45:53;100607.59;;;-2.80;52.78
68656;BME280;55638;51.122;13.606;2024-03-08T05:47:25;100613.78;;;-2.81;53.17
68656;BME280;55638;51.122;13.606;2024-03-08T05:49:02;100604.09;;;-2.80;52.76
68656;BME280;55638;51.122;13.606;2024-03-08T05:50:38;100603.25;;;-2.81;52.83
68656;BME280;55638;51.122;13.606;2024-03-08T05:52:10;100595.31;;;-2.81;52.75
68656;BME280;55638;51.122;13.606;2024-03-08T05:53:42;100601.50;;;-2.82;52.97
68656;BME280;55638;51.122;13.606;2024-03-08T05:55:15;100606.75;;;-2.80;53.08
68656;BME280;55638;51.122;13.606;2024-03-08T05:56:46;100608.47;;;-2.79;52.82
68656;BME280;55638;51.122;13.606;2024-03-08T05:58:19;100610.25;;;-2.80;53.23
68656;BME280;55638;51.122;13.606;2024-03-08T05:59:51;100606.72;;;-2.79;53.21
68656;BME280;55638;51.122;13.606;2024-03-08T06:01:24;100613.72;;;-2.78;53.17
68656;BME280;55638;51.122;13.606;2024-03-08T06:02:56;100607.53;;;-2.77;53.04
68656;BME280;55638;51.122;13.606;2024-03-08T06:04:28;100607.53;;;-2.75;53.24
68656;BME280;55638;51.122;13.606;2024-03-08T06:06:00;100604.84;;;-2.74;53.38
68656;BME280;55638;51.122;13.606;2024-03-08T06:07:34;100606.56;;;-2.73;53.36
68656;BME280;55638;51.122;13.606;2024-03-08T06:09:05;100610.91;;;-2.70;53.27
68656;BME280;55638;51.122;13.606;2024-03-08T06:10:44;100612.63;;;-2.68;53.31
68656;BME280;55638;51.122;13.606;2024-03-08T06:12:16;100609.06;;;-2.65;53.35
68656;BME280;55638;51.122;13.606;2024-03-08T06:13:50;100607.22;;;-2.63;53.50
68656;BME280;55638;51.122;13.606;2024-03-08T06:15:22;100611.56;;;-2.60;53.48
68656;BME280;55638;51.122;13.606;2024-03-08T06:16:54;100605.38;;;-2.58;53.58
68656;BME280;55638;51.122;13.606;2024-03-08T06:18:26;100616.72;;;-2.54;53.34
68656;BME280;55638;51.122;13.606;2024-03-08T06:19:58;100613.16;;;-2.53;53.49
68656;BME280;55638;51.122;13.606;2024-03-08T06:21:30;100614.94;;;-2.52;53.50
68656;BME280;55638;51.122;13.606;2024-03-08T06:23:03;100609.56;;;-2.49;53.44
68656;BME280;55638;51.122;13.606;2024-03-08T06:24:35;100612.16;;;-2.46;53.44
68656;BME280;55638;51.122;13.606;2024-03-08T06:26:09;100607.69;;;-2.44;53.36
68656;BME280;55638;51.122;13.606;2024-03-08T06:27:41;100613.81;;;-2.42;53.58
68656;BME280;55638;51.122;13.606;2024-03-08T06:29:14;100609.38;;;-2.40;53.48
68656;BME280;55638;51.122;13.606;2024-03-08T06:30:47;100608.41;;;-2.37;53.57
68656;BME280;55638;51.122;13.606;2024-03-08T06:32:19;100611.03;;;-2.36;53.58
68656;BME280;55638;51.122;13.606;2024-03-08T06:33:51;100611.88;;;-2.35;53.76
68656;BME280;55638;51.122;13.606;2024-03-08T06:35:23;100605.69;;;-2.33;53.67
68656;BME280;55638;51.122;13.606;2024-03-08T06:36:55;100608.25;;;-2.31;53.55
68656;BME280;55638;51.122;13.606;2024-03-08T06:38:32;100604.63;;;-2.27;53.59
68656;BME280;55638;51.122;13.606;2024-03-08T06:40:05;100602.91;;;-2.27;53.89
68656;BME280;55638;51.122;13.606;2024-03-08T06:41:39;100602.84;;;-2.25;54.03
68656;BME280;55638;51.122;13.606;2024-03-08T06:43:12;100599.25;;;-2.23;53.93
68656;BME280;55638;51.122;13.606;2024-03-08T06:44:47;100600.97;;;-2.20;54.10
68656;BME280;55638;51.122;13.606;2024-03-08T06:46:21;100602.66;;;-2.17;54.34
68656;BME280;55638;51.122;13.606;2024-03-08T06:47:53;100596.41;;;-2.13;54.21
68656;BME280;55638;51.122;13.606;2024-03-08T06:49:26;100598.06;;;-2.09;53.94
68656;BME280;55638;51.122;13.606;2024-03-08T06:50:58;100596.25;;;-2.07;54.26
68656;BME280;55638;51.122;13.606;2024-03-08T06:52:30;100597.06;;;-2.04;54.34
68656;BME280;55638;51.122;13.606;2024-03-08T06:54:02;100608.41;;;-2.00;54.48
68656;BME280;55638;51.122;13.606;2024-03-08T06:55:40;100597.75;;;-1.97;54.50
68656;BME280;55638;51.122;13.606;2024-03-08T06:57:12;100602.91;;;-1.91;54.74
68656;BME280;55638;51.122;13.606;2024-03-08T06:58:45;100602.81;;;-1.88;54.79
68656;BME280;55638;51.122;13.606;2024-03-08T07:00:18;100600.91;;;-1.83;54.61
68656;BME280;55638;51.122;13.606;2024-03-08T07:01:50;100605.19;;;-1.79;54.75
68656;BME280;55638;51.122;13.606;2024-03-08T07:03:23;100596.25;;;-1.73;54.87
68656;BME280;55638;51.122;13.606;2024-03-08T07:04:55;100601.44;;;-1.68;54.85
68656;BME280;55638;51.122;13.606;2024-03-08T07:06:27;100596.00;;;-1.64;54.95
68656;BME280;55638;51.122;13.606;2024-03-08T07:08:00;100599.41;;;-1.59;54.77
68656;BME280;55638;51.122;13.606;2024-03-08T07:09:32;100600.13;;;-1.54;54.74
68656;BME280;55638;51.122;13.606;2024-03-08T07:11:04;100597.34;;;-1.47;55.00
68656;BME280;55638;51.122;13.606;2024-03-08T07:12:37;100590.16;;;-1.42;54.97
68656;BME280;55638;51.122;13.606;2024-03-08T07:14:09;100583.00;;;-1.39;55.45
68656;BME280;55638;51.122;13.606;2024-03-08T07:15:41;100582.88;;;-1.34;55.55
68656;BME280;55638;51.122;13.606;2024-03-08T07:17:14;100583.56;;;-1.28;55.34
68656;BME280;55638;51.122;13.606;2024-03-08T07:18:45;100580.69;;;-1.20;55.24
68656;BME280;55638;51.122;13.606;2024-03-08T07:20:18;100577.00;;;-1.14;55.10
68656;BME280;55638;51.122;13.606;2024-03-08T07:21:51;100578.59;;;-1.09;55.27
68656;BME280;55638;51.122;13.606;2024-03-08T07:23:22;100577.56;;;-1.03;55.19
68656;BME280;55638;51.122;13.606;2024-03-08T07:25:18;100573.81;;;-0.96;55.40
68656;BME280;55638;51.122;13.606;2024-03-08T07:26:53;100575.38;;;-0.89;55.42
68656;BME280;55638;51.122;13.606;2024-03-08T07:28:27;100575.19;;;-0.83;55.86
68656;BME280;55638;51.122;13.606;2024-03-08T07:29:59;100575.00;;;-0.76;55.74
68656;BME280;55638;51.122;13.606;2024-03-08T07:31:35;100572.13;;;-0.69;55.53
68656;BME280;55638;51.122;13.606;2024-03-08T07:33:22;100576.28;;;-0.60;55.39
68656;BME280;55638;51.122;13.606;2024-03-08T07:34:54;100576.94;;;-0.53;55.29
68656;BME280;55638;51.122;13.606;2024-03-08T07:36:27;100575.91;;;-0.48;54.94
68656;BME280;55638;51.122;13.606;2024-03-08T07:37:59;100570.41;;;-0.42;55.33
68656;BME280;55638;51.122;13.606;2024-03-08T07:39:34;100572.72;;;-0.33;55.02
68656;BME280;55638;51.122;13.606;2024-03-08T07:41:06;100573.47;;;-0.27;55.17
68656;BME280;55638;51.122;13.606;2024-03-08T07:42:38;100574.13;;;-0.21;55.04
68656;BME280;55638;51.122;13.606;2024-03-08T07:44:09;100566.84;;;-0.14;54.88
68656;BME280;55638;51.122;13.606;2024-03-08T07:45:42;100571.94;;;-0.08;55.16
68656;BME280;55638;51.122;13.606;2024-03-08T07:47:14;100569.09;;;-0.02;55.05
68656;BME280;55638;51.122;13.606;2024-03-08T07:48:46;100570.59;;;0.05;54.75
68656;BME280;55638;51.122;13.606;2024-03-08T07:50:18;100569.53;;;0.11;54.86
68656;BME280;55638;51.122;13.606;2024-03-08T07:51:51;100569.38;;;0.15;55.06
68656;BME280;55638;51.122;13.606;2024-03-08T07:53:23;100563.84;;;0.22;55.04
68656;BME280;55638;51.122;13.606;2024-03-08T07:54:58;100562.72;;;0.29;54.96
68656;BME280;55638;51.122;13.606;2024-03-08T07:56:31;100557.22;;;0.35;54.89
68656;BME280;55638;51.122;13.606;2024-03-08T07:58:03;100558.72;;;0.42;54.79
68656;BME280;55638;51.122;13.606;2024-03-08T07:59:35;100553.31;;;0.45;55.24